Clover Valley, Nevada Weather observations

Data are for 10 minute period ending at time listed.
 Day   Time   Solar   Ave.   Ave.  Ave.  Vector  Max.   Baro.   Total    
  of    of     Rad.   Air    Rel.  Wind   Wind   Wind  Press.  Precip.   
Year   Day            Temp.  Hum.  Speed  Dir.   Gust                    
2017   (PST)  Kw/m2    F      %     mph   deg.    mph    mb.     in.     
-------------------------------------------------------------------------
 116    5:20   0.01   41.3    68   12.2   258    18.6   822.1    0.00 
 116    5:30   0.02   41.5    68    8.3   244    14.1   822.4    0.00 
 116    5:40   0.02   41.3    68    3.1    54     5.7   822.7    0.00 
 116    5:50   0.04   41.1    70    3.7    28     8.9   822.7    0.00 
 116    6:00   0.05   41.6    72    2.6   319     9.0   822.7    0.00 
 116    6:10   0.07   42.3    68    9.0   248    14.2   822.5    0.00 
 116    6:20   0.12   42.3    69   10.8   237    16.5   822.2    0.00 
 116    6:30   0.13   42.1    69   14.2   236    20.2   821.7    0.00 
 116    6:40   0.25   43.2    68   15.0   236    21.7   821.5    0.00 
 116    6:50   0.31   43.9    66   12.8   221    17.8   821.5    0.00 
 116    7:00   0.43   45.2    62   10.8   221    16.4   821.5    0.00 
 116    7:10   0.43   45.8    61   10.6   178    15.9   821.6    0.00 
 116    7:20   0.54   46.9    58   12.2   196    19.2   821.5    0.00 
 116    7:30   0.64   47.5    56   14.0   191    19.1   821.4    0.00 
 116    7:40   0.66   48.5    52   11.8   205    19.9   821.3    0.00 
 116    7:50   0.45   47.5    54   12.2   207    17.8   821.4    0.00 
 116    8:00   0.33   47.3    52   11.1   203    15.3   821.4    0.00 
 116    8:10   0.38   47.8    53   10.3   206    17.5   821.4    0.00 
 116    8:20   0.36   47.5    55   12.8   201    17.7   821.4    0.00 
 116    8:30   0.41   47.9    55   12.8   206    18.2   821.3    0.00 
 116    8:40   0.23   47.4    53   11.0   212    16.9   821.2    0.00 
 116    8:50   0.34   47.2    55   11.1   227    17.2   821.1    0.00 
 116    9:00   0.46   48.5    52    9.6   218    22.3   821.0    0.00 
 116    9:10   0.33   47.4    56   14.1   215    18.3   820.9    0.00 
 116    9:20   0.30   46.8    57   17.6   216    24.0   820.7    0.00 
 116    9:30   0.72   48.7    53   16.9   226    25.2   820.6    0.00 
 116    9:40   0.45   49.5    50   14.8   232    21.8   820.8    0.00 
 116    9:50   0.36   48.8    52   16.2   240    21.0   820.8    0.00 
 116   10:00   0.60   49.1    53   14.3   238    19.9   820.6    0.00 
 116   10:10   0.32   49.2    53   13.4   252    18.9   820.5    0.00 
 116   10:20   0.23   48.8    55   13.8   245    19.4   820.3    0.00 
 116   10:30   0.23   48.6    55   13.1   249    18.2   820.2    0.00 
 116   10:40   0.23   48.8    54   10.1   251    15.7   820.1    0.00 
 116   10:50   0.29   49.5    52   11.3   254    17.4   819.8    0.00 
 116   11:00   0.31   49.8    52   12.9   265    19.5   819.7    0.00 
 116   11:10   0.29   49.7    53   17.2   273    23.8   819.6    0.00 
 116   11:20   0.17   49.4    53   15.2   268    21.0   819.7    0.00 
 116   11:30   0.10   48.8    56   14.5   276    20.6   819.6    0.00 
 116   11:40   0.08   47.9    60   14.0   270    18.7   819.5    0.00 
 116   11:50   0.09   47.4    62   10.7   269    16.1   819.5    0.00 
 116   12:00   0.09   47.6    64   12.9   265    22.5   819.2    0.00 
 116   12:10   0.11   47.7    64   15.9   262    23.7   818.9    0.00 
 116   12:20   0.11   48.3    63   13.9   264    23.9   818.6    0.00 
 116   12:30   0.10   48.9    59   15.2   266    22.1   818.6    0.00 
 116   12:40   0.14   48.9    61   17.6   260    25.9   818.6    0.00 
 116   12:50   0.16   48.5    64   16.9   266    23.8   818.6    0.00 
 116   13:00   0.19   48.1    64   17.9   268    24.2   818.6    0.00 
 116   13:10   0.23   49.0    63   20.0   268    26.9   818.6    0.00 
 116   13:20   0.16   49.1    62   21.7   278    31.1   818.7    0.00 
 116   13:30   0.10   46.3    74   16.7   274    24.0   818.7    0.01 
 116   13:40   0.21   46.1    76    9.2   249    18.0   818.7    0.00 
 116   13:50   0.32   46.6    73    2.6   216     6.7   818.5    0.01 
 116   14:00   0.20   46.7    75    6.9    34    13.3   818.4    0.00 
 116   14:10   0.10   45.5    81    9.0    18    12.6   818.6    0.00 
 116   14:20   0.07   44.7    82    9.1    21    12.6   818.6    0.02 
 116   14:30   0.10   44.3    83    8.3    34    11.8   818.6    0.01 
 116   14:40   0.17   44.2    83    8.9    30    10.8   818.6    0.01 
 116   14:50   0.33   44.6    83    9.1    33    12.1   818.4    0.00 
 116   15:00   0.48   45.2    80    7.5    21    12.2   818.4    0.00 
 116   15:10   0.43   45.6    73    3.7     8     7.9   818.4    0.00 
 116   15:20   0.47   46.7    70    2.2    26     5.6   818.0    0.00 
 116   15:30   0.22   46.6    71    3.7     6     8.4   817.8    0.00 
 116   15:40   0.48   47.1    69    6.0   341    10.2   818.0    0.00 
 116   15:50   0.33   47.8    71    4.6    13     8.8   818.0    0.00 
 116   16:00   0.06   46.6    73    9.7    10    16.8   818.3    0.00 
 116   16:10   0.03   44.5    80   12.8   353    17.1   818.5    0.01 
 116   16:20   0.05   43.7    84    9.1   352    14.6   818.4    0.04 
 116   16:30   0.07   43.4    82    9.8     6    14.3   818.3    0.00 
 116   16:40   0.10   43.2    84   11.6     5    15.5   818.2    0.00 
 116   16:50   0.07   43.4    84    6.5   346    11.7   818.2    0.00 
 116   17:00   0.02   43.4    84    5.6   333     7.4   818.3    0.00 
 116   17:10   0.04   43.1    83    6.4     2     9.5   818.3    0.01 
 116   17:20   0.02   42.6    84    9.2     5    14.0   818.4    0.00 
 116   17:30   0.05   41.6    85    9.1    34    12.7   818.1    0.01 
 116   17:40   0.03   41.0    87    7.0    46    10.2   818.0    0.00 
 116   17:50   0.02   41.0    88    4.6    34     7.2   818.2    0.00 
 116   18:00   0.02   41.3    88    4.8    67     6.5   817.9    0.00 
 116   18:10   0.01   41.2    88    3.5    34     6.9   818.0    0.00 
 116   18:20   0.01   41.2    88    3.0    37     6.2   818.0    0.00 
 116   18:30   0.00   41.2    88    3.6    82     4.7   817.9    0.00 
 116   18:40   0.00   41.3    89    6.3   141     8.9   818.0    0.00 
 116   18:50   0.00   41.0    89    6.6   119     9.1   818.0    0.00 
 116   19:00   0.00   40.7    90    4.7    66     6.9   818.3    0.01 
 116   19:10   0.00   40.7    90    5.0    28     7.5   818.8    0.03 
 116   19:20   0.00   40.7    88    2.1    89     4.3   818.7    0.01 
 116   19:30   0.00   40.6    90    5.5   115     8.6   818.8    0.02 
 116   19:40   0.00   40.7    88    6.0   136     8.9   819.0    0.00 
 116   19:50   0.00   40.8    88    7.0   122    10.7   819.1    0.01 
 116   20:00   0.00   40.6    90    6.8   110    11.2   819.2    0.00 
 116   20:10   0.00   41.5    82    2.3   309     7.2   819.3    0.00 
 116   20:20   0.00   41.4    83    2.6   194     6.4   819.2    0.00 
 116   20:30   0.00   41.5    84    4.3   270     8.9   819.3    0.00 
 116   20:40   0.00   41.1    86    1.4   258     2.9   819.3    0.00 
 116   20:50   0.00   40.8    87    2.9   113     5.3   819.3    0.00 
 116   21:00   0.00   40.6    86    4.9    81     7.7   819.3    0.00 
 116   21:10   0.00   41.0    82    3.4     1     6.1   819.2    0.00 
 116   21:20   0.00   40.9    81    3.4   270     6.1   819.1    0.00 
 116   21:30   0.00   40.2    83    4.0   250     6.0   819.3    0.00 
 116   21:40   0.00   39.8    85    4.5   246     7.6   819.4    0.00 
 116   21:50   0.00   40.0    86    3.2   285     5.0   819.5    0.00 
 116   22:00   0.00   39.9    84    3.9   298    13.8   819.6    0.00 
 116   22:10   0.00   40.2    79    8.1    10    12.6   819.7    0.00 
 116   22:20   0.00   39.2    82   11.2    17    21.1   819.6    0.00 
 116   22:30   0.00   38.1    83   10.8     6    18.0   819.6    0.00 
 116   22:40   0.00   38.2    85    7.0   354    12.9   819.5    0.00 
 116   22:50   0.00   38.4    84    7.3   327    13.0   819.5    0.00 
 116   23:00   0.00   38.6    83    7.7   316    15.9   819.6    0.00 
 116   23:10   0.00   38.0    85   10.3   333    15.1   819.9    0.00 
 116   23:20   0.00   37.9    85    5.5   312     9.4   820.1    0.00 
 116   23:30   0.00   37.7    86    3.1   319     5.8   820.1    0.00 
 116   23:40   0.00   38.3    79    3.8     8     5.9   820.1    0.00 
 116   23:50   0.00   38.6    74    3.8    14     7.5   820.1    0.00 
 117    0:00   0.00   38.8    70    3.3    16     6.9   820.1    0.00 
 117    0:10   0.00   38.1    63    6.8   318    11.8   820.2    0.01 
 117    0:20   0.00   37.7    60    7.4   312    16.4   820.4    0.00 
 117    0:30   0.00   37.4    60    7.1   310    13.1   820.7    0.00 
 117    0:40   0.00   36.8    61    4.8   349    11.6   820.8    0.00 
 117    0:50   0.00   37.2    57    9.9   322    16.3   820.8    0.00 
 117    1:00   0.00   37.0    57   13.5   314    21.4   820.7    0.00 
 117    1:10   0.00   36.2    61    8.7   335    12.9   820.7    0.00 
 117    1:20   0.00   36.3    57   11.2   329    17.8   820.9    0.00 
 117    1:30   0.00   36.6    54   13.4   320    23.5   820.9    0.00 
 117    1:40   0.00   36.1    56   11.4   330    19.9   821.0    0.00 
 117    1:50   0.00   35.9    56    8.6   327    15.0   820.9    0.00 
 117    2:00   0.00   36.1    54    9.3   320    19.4   821.0    0.00 
 117    2:10   0.00   35.7    55   12.8   320    22.5   821.0    0.00 
 117    2:20   0.00   35.8    52   13.1   326    22.3   821.0    0.00 
 117    2:30   0.00   35.3    55   10.1   332    17.2   821.0    0.00 
 117    2:40   0.00   35.2    55   10.0   338    16.3   821.2    0.00 
 117    2:50   0.00   34.9    55    7.2   346    11.5   821.2    0.00 
 117    3:00   0.00   34.5    57    6.1     8    10.5   821.2    0.00 
 117    3:10   0.00   34.6    56    6.9     3    20.0   821.2    0.00 
 117    3:20   0.00   34.5    56    6.4     4    19.4   821.2    0.00 
 117    3:30   0.00   35.1    55    6.6     4    11.2   821.3    0.00 
 117    3:40   0.00   35.0    54    8.7    12    13.5   821.1    0.00 
 117    3:50   0.00   35.0    54    5.1   345     9.4   821.2    0.00 
 117    4:00   0.00   35.4    51    3.7    38     6.4   821.2    0.00 
 117    4:10   0.00   34.8    54    5.3    40    10.7   821.1    0.00 
 117    4:20   0.00   34.1    57    5.2     9     9.9   821.1    0.00 
 117    4:30   0.00   34.6    53    6.9   349    15.6   820.9    0.00 
 117    4:40   0.00   35.4    49    8.2   354    18.4   820.9    0.00 
 117    4:50   0.01   35.5    51    6.4   338    20.0   820.9    0.00 
 117    5:00   0.01   35.8    49   10.7   317    22.9   820.8    0.00 
 117    5:10   0.02   35.9    48   11.8   305    19.7   820.7    0.00 

Return to Clover Valley graphs page.


Western Regional Climate Center,wrcc@dri.edu